Time;durP1;ratioP1;P1;durP2;ratioP2;P2;SDS_P1;SDS_P2;PMS_P1;PMS_P2;Temp;Humidity;BMP_temperature;BMP_pressure;BME280_temperature;BME280_humidity;BME280_pressure;Samples;Min_cycle;Max_cycle;Signal;HPM_P1;HPM_P2
2021/12/30 00:01:16;;;;;;;11.73;2.35;;;8.40;99.90;;;;;;5117419;28;20105;-70
2021/12/30 00:03:44;;;;;;;11.88;1.70;;;8.20;99.90;;;;;;5117283;28;20051;-70
2021/12/30 00:06:10;;;;;;;13.63;2.20;;;8.30;99.90;;;;;;5117048;28;20051;-71
2021/12/30 00:08:37;;;;;;;15.48;2.15;;;8.50;99.90;;;;;;5117008;28;20372;-72
2021/12/30 00:11:03;;;;;;;10.68;2.40;;;8.30;99.90;;;;;;5117047;28;20090;-71
2021/12/30 00:13:29;;;;;;;13.93;1.85;;;8.30;99.90;;;;;;5117361;28;20063;-71
2021/12/30 00:15:55;;;;;;;12.68;2.03;;;8.40;99.90;;;;;;5116092;28;20467;-71
2021/12/30 00:18:21;;;;;;;12.75;1.95;;;8.40;99.90;;;;;;5116245;28;20083;-71
2021/12/30 00:20:47;;;;;;;10.43;1.92;;;8.30;99.90;;;;;;5116870;28;20088;-71
2021/12/30 00:23:13;;;;;;;14.05;1.92;;;8.90;99.90;;;;;;5116012;28;20047;-71
2021/12/30 00:25:41;;;;;;;13.80;1.95;;;8.30;99.90;;;;;;5116688;28;20047;-71
2021/12/30 00:28:12;;;;;;;10.82;2.58;;;8.00;99.90;;;;;;5116489;28;20063;-70
2021/12/30 00:30:38;;;;;;;14.93;2.38;;;9.10;99.90;;;;;;5116786;28;20401;-71
2021/12/30 00:33:04;;;;;;;17.23;2.38;;;8.50;99.90;;;;;;5116375;28;20492;-71
2021/12/30 00:35:30;;;;;;;12.25;2.20;;;8.60;99.90;;;;;;5116442;28;20051;-71
2021/12/30 00:37:56;;;;;;;21.35;2.47;;;8.20;99.90;;;;;;5116534;28;20136;-70
2021/12/30 00:40:22;;;;;;;17.83;3.05;;;8.10;99.90;;;;;;5098505;28;20105;-70
2021/12/30 00:42:48;;;;;;;14.85;3.25;;;8.50;99.90;;;;;;5116250;28;20490;-72
2021/12/30 00:45:13;;;;;;;11.15;3.05;;;8.20;99.90;;;;;;5115748;28;20047;-71
2021/12/30 00:47:39;;;;;;;16.35;3.20;;;8.40;99.90;;;;;;5097588;28;20051;-71
2021/12/30 00:50:05;;;;;;;18.30;2.40;;;8.50;99.90;;;;;;5115763;28;20052;-71
2021/12/30 00:52:31;;;;;;;16.40;2.75;;;8.20;99.90;;;;;;5115629;28;20087;-71
2021/12/30 00:54:57;;;;;;;20.73;3.60;;;8.20;99.90;;;;;;5115664;28;20086;-71
2021/12/30 00:57:22;;;;;;;19.33;2.38;;;8.10;99.90;;;;;;5116151;28;20479;-71
2021/12/30 00:59:48;;;;;;;18.50;3.22;;;8.50;99.90;;;;;;5115961;28;20044;-70
2021/12/30 01:02:14;;;;;;;14.55;2.55;;;8.20;99.90;;;;;;5116017;28;20043;-70
2021/12/30 01:04:40;;;;;;;16.30;2.92;;;8.50;99.90;;;;;;5097927;28;20050;-70
2021/12/30 01:07:05;;;;;;;13.93;2.85;;;8.20;99.90;;;;;;5097710;28;20062;-70
2021/12/30 01:09:31;;;;;;;15.13;2.80;;;8.30;99.90;;;;;;5115724;28;20122;-70
2021/12/30 01:11:58;;;;;;;15.20;2.75;;;8.30;99.90;;;;;;5115565;28;20044;-70
2021/12/30 01:14:28;;;;;;;18.13;3.08;;;8.40;99.90;;;;;;5115867;28;20054;-70
2021/12/30 01:16:58;;;;;;;16.38;3.60;;;8.20;99.90;;;;;;5115938;28;20048;-71
2021/12/30 01:19:42;;;;;;;16.70;3.10;;;8.40;99.90;;;;;;5116077;28;20047;-71
2021/12/30 01:22:24;;;;;;;20.23;3.13;;;8.20;99.90;;;;;;5097752;28;20059;-70
2021/12/30 01:24:51;;;;;;;23.40;3.50;;;8.40;99.90;;;;;;5115180;28;20055;-70
2021/12/30 01:27:18;;;;;;;25.00;4.32;;;8.20;99.90;;;;;;5115102;28;20079;-71
2021/12/30 01:29:44;;;;;;;15.25;3.55;;;8.50;99.90;;;;;;5081074;28;20087;-70
2021/12/30 01:32:10;;;;;;;17.50;3.67;;;8.50;99.90;;;;;;5115319;28;20147;-70
2021/12/30 01:34:36;;;;;;;19.77;3.88;;;8.10;99.90;;;;;;5115288;28;20169;-71
2021/12/30 01:37:04;;;;;;;20.30;3.38;;;8.70;99.90;;;;;;5115380;28;20039;-70
2021/12/30 01:39:31;;;;;;;19.58;3.38;;;8.10;99.90;;;;;;5115344;28;20051;-70
2021/12/30 01:42:00;;;;;;;21.48;3.60;;;8.10;99.90;;;;;;5115313;28;20051;-69
2021/12/30 01:44:29;;;;;;;26.13;3.40;;;8.50;99.90;;;;;;5115145;28;20040;-70
2021/12/30 01:46:56;;;;;;;22.55;3.50;;;8.40;99.90;;;;;;5115155;28;20043;-70
2021/12/30 01:49:23;;;;;;;18.38;3.40;;;8.10;99.90;;;;;;5114860;28;20044;-70
2021/12/30 01:51:49;;;;;;;16.27;2.83;;;8.10;99.90;;;;;;5115011;28;20256;-70
2021/12/30 01:54:16;;;;;;;15.43;3.17;;;8.40;99.90;;;;;;5114432;28;20047;-70
2021/12/30 01:56:42;;;;;;;18.83;3.55;;;8.40;99.90;;;;;;5114887;28;20047;-70
2021/12/30 01:59:09;;;;;;;22.15;3.33;;;8.40;99.90;;;;;;5096818;28;20399;-71
2021/12/30 02:01:35;;;;;;;23.80;4.50;;;8.40;99.90;;;;;;5115110;28;20039;-70
2021/12/30 02:04:01;;;;;;;24.92;4.63;;;8.20;99.90;;;;;;5096851;28;20079;-69
2021/12/30 02:06:27;;;;;;;20.08;3.95;;;8.30;99.90;;;;;;5096692;28;20082;-70
2021/12/30 02:08:54;;;;;;;18.00;3.65;;;8.10;99.90;;;;;;5114757;28;20047;-71
2021/12/30 02:11:23;;;;;;;23.30;4.35;;;8.40;99.90;;;;;;5114401;28;20495;-71
2021/12/30 02:13:49;;;;;;;22.48;4.00;;;8.20;99.90;;;;;;5114500;28;20180;-71
2021/12/30 02:16:17;;;;;;;20.02;4.10;;;8.40;99.90;;;;;;5113776;28;20050;-70
2021/12/30 02:18:43;;;;;;;28.30;3.53;;;8.20;99.90;;;;;;5113531;28;20471;-71
2021/12/30 02:21:09;;;;;;;23.00;3.92;;;8.40;99.90;;;;;;5114855;28;20059;-71
2021/12/30 02:23:37;;;;;;;20.52;3.97;;;8.00;99.90;;;;;;5095973;28;20043;-70
2021/12/30 02:26:06;;;;;;;24.02;3.85;;;8.10;99.90;;;;;;5113943;28;20039;-70
2021/12/30 02:28:34;;;;;;;24.30;3.95;;;8.10;99.90;;;;;;5114216;28;20051;-71
2021/12/30 02:31:02;;;;;;;24.88;3.75;;;8.00;99.90;;;;;;5114342;28;20166;-71
2021/12/30 02:33:29;;;;;;;20.20;3.72;;;8.00;99.90;;;;;;5114115;28;20105;-71
2021/12/30 02:35:55;;;;;;;23.92;3.88;;;7.80;99.90;;;;;;5114212;28;20040;-71
2021/12/30 02:38:22;;;;;;;19.33;3.42;;;8.10;99.90;;;;;;5114269;28;20108;-71
2021/12/30 02:40:52;;;;;;;17.13;3.08;;;8.20;99.90;;;;;;5063182;28;20084;-71
2021/12/30 02:43:21;;;;;;;19.30;3.13;;;8.00;99.90;;;;;;5114017;28;20093;-71
2021/12/30 02:45:47;;;;;;;20.98;3.50;;;8.00;99.90;;;;;;5114177;28;20048;-71
2021/12/30 02:48:16;;;;;;;17.98;3.55;;;7.80;99.90;;;;;;5114140;28;20040;-71
2021/12/30 02:50:43;;;;;;;23.10;3.75;;;8.10;99.90;;;;;;5113573;28;20112;-71
2021/12/30 02:53:10;;;;;;;17.58;3.05;;;8.20;99.90;;;;;;5113741;28;20062;-71
2021/12/30 02:55:36;;;;;;;17.70;3.58;;;8.20;99.90;;;;;;5114084;28;20039;-71
2021/12/30 02:58:02;;;;;;;21.63;3.78;;;8.00;99.90;;;;;;5113709;28;20039;-71
2021/12/30 03:00:29;;;;;;;23.42;3.85;;;8.00;99.90;;;;;;5096156;28;20051;-71
2021/12/30 03:02:56;;;;;;;19.05;3.78;;;8.30;99.90;;;;;;5113656;28;20353;-71
2021/12/30 03:05:24;;;;;;;18.38;3.35;;;7.70;99.90;;;;;;5095869;28;20376;-71
2021/12/30 03:07:50;;;;;;;18.95;4.18;;;8.20;99.90;;;;;;5095989;28;20071;-70
2021/12/30 03:10:21;;;;;;;23.35;4.03;;;7.80;99.90;;;;;;5113214;28;20082;-71
2021/12/30 03:12:55;;;;;;;21.27;3.17;;;7.90;99.90;;;;;;5113889;28;20115;-71
2021/12/30 03:15:23;;;;;;;21.20;4.18;;;7.90;99.90;;;;;;5095830;28;20053;-71
2021/12/30 03:17:48;;;;;;;20.52;3.83;;;7.90;99.90;;;;;;5078983;28;20048;-71
2021/12/30 03:20:14;;;;;;;21.65;2.92;;;8.30;99.90;;;;;;5113541;28;20092;-70
2021/12/30 03:22:42;;;;;;;25.05;4.05;;;7.90;99.90;;;;;;5113894;28;20101;-71
2021/12/30 03:25:10;;;;;;;17.20;3.90;;;8.20;99.90;;;;;;5112918;28;20081;-71
2021/12/30 03:27:37;;;;;;;24.23;5.05;;;7.90;99.90;;;;;;5113532;28;20066;-71
2021/12/30 03:30:08;;;;;;;23.58;4.47;;;8.30;99.90;;;;;;5113421;28;20092;-70
2021/12/30 03:32:34;;;;;;;21.30;4.07;;;8.00;99.90;;;;;;5095382;28;20040;-71
2021/12/30 03:35:01;;;;;;;18.67;4.70;;;8.10;99.90;;;;;;5113659;28;20051;-72
2021/12/30 03:37:26;;;;;;;22.85;4.78;;;8.10;99.90;;;;;;5113432;28;20040;-72
2021/12/30 03:39:52;;;;;;;23.02;4.72;;;8.30;99.90;;;;;;5095369;28;20108;-71
2021/12/30 03:42:18;;;;;;;18.75;4.03;;;8.20;99.90;;;;;;5078602;28;20051;-70
2021/12/30 03:44:44;;;;;;;22.40;5.55;;;8.40;99.90;;;;;;5113631;28;20055;-71
2021/12/30 03:47:17;;;;;;;18.80;5.93;;;8.20;99.90;;;;;;5095570;28;20032;-71
2021/12/30 03:49:44;;;;;;;25.25;6.22;;;8.50;99.90;;;;;;5113658;28;20074;-71
2021/12/30 03:52:19;;;;;;;27.38;6.75;;;8.40;99.90;;;;;;5113600;28;20063;-71
2021/12/30 03:54:45;;;;;;;25.23;6.30;;;8.30;99.90;;;;;;5112942;28;20051;-71
2021/12/30 03:57:11;;;;;;;23.90;7.05;;;8.20;99.90;;;;;;5113428;28;20145;-71
2021/12/30 03:59:37;;;;;;;30.10;6.55;;;8.40;99.90;;;;;;5095374;28;20364;-71
2021/12/30 04:02:03;;;;;;;22.52;5.88;;;8.70;99.90;;;;;;5113337;28;20446;-70
2021/12/30 04:04:29;;;;;;;27.85;6.80;;;8.20;99.90;;;;;;5113367;28;20054;-71
2021/12/30 04:06:54;;;;;;;27.33;6.68;;;8.90;99.90;;;;;;5113010;28;20044;-71
2021/12/30 04:09:20;;;;;;;26.17;6.68;;;8.60;99.90;;;;;;5113363;28;20040;-71
2021/12/30 04:11:46;;;;;;;29.45;7.55;;;8.50;99.90;;;;;;5113388;28;20399;-72
2021/12/30 04:14:12;;;;;;;28.92;7.47;;;8.40;99.90;;;;;;5112956;28;20039;-71
2021/12/30 04:16:38;;;;;;;33.30;7.22;;;9.00;99.90;;;;;;5112681;28;20135;-71
2021/12/30 04:19:04;;;;;;;29.27;7.28;;;8.70;99.90;;;;;;5094207;28;20126;-72
2021/12/30 04:21:31;;;;;;;32.80;8.10;;;8.50;99.90;;;;;;5114676;28;20126;-72
2021/12/30 04:23:57;;;;;;;27.23;8.30;;;8.80;99.90;;;;;;5116084;28;20035;-71
2021/12/30 04:26:23;;;;;;;32.03;8.40;;;8.60;99.90;;;;;;5117002;28;20039;-71
2021/12/30 04:28:49;;;;;;;28.67;8.13;;;8.60;99.90;;;;;;5116451;28;20055;-71
2021/12/30 04:31:14;;;;;;;29.00;8.23;;;8.50;99.90;;;;;;5098437;28;20043;-72
2021/12/30 04:33:41;;;;;;;28.23;7.93;;;8.80;99.90;;;;;;5116598;28;20051;-72
2021/12/30 04:36:07;;;;;;;28.85;8.75;;;8.60;99.90;;;;;;5116511;28;20126;-72
2021/12/30 04:38:34;;;;;;;29.55;8.77;;;8.90;99.90;;;;;;5116031;28;20513;-72
2021/12/30 04:41:01;;;;;;;29.75;7.90;;;8.90;99.90;;;;;;5116523;28;20140;-72
2021/12/30 04:43:27;;;;;;;24.63;7.38;;;8.70;99.90;;;;;;5116473;28;20047;-71
2021/12/30 04:45:53;;;;;;;29.02;7.97;;;8.80;99.90;;;;;;5116236;28;20051;-71
2021/12/30 04:48:20;;;;;;;33.08;7.78;;;8.90;99.90;;;;;;5116221;28;20368;-71
2021/12/30 04:50:46;;;;;;;27.50;8.35;;;8.70;99.90;;;;;;5116014;28;20058;-71
2021/12/30 04:53:13;;;;;;;22.17;7.38;;;8.80;99.90;;;;;;5115662;28;20048;-71
2021/12/30 04:55:39;;;;;;;33.78;7.22;;;9.10;99.90;;;;;;5116182;28;20063;-71
2021/12/30 04:58:05;;;;;;;28.10;7.30;;;8.80;99.90;;;;;;5115922;28;20039;-71
2021/12/30 05:00:32;;;;;;;27.20;7.65;;;9.00;99.90;;;;;;5098473;28;20131;-71
2021/12/30 05:05:36;;;;;;;29.50;7.80;;;8.80;99.90;;;;;;5116261;28;20112;-71
2021/12/30 05:08:02;;;;;;;27.65;7.25;;;8.90;99.90;;;;;;5115634;28;20046;-71
2021/12/30 05:10:28;;;;;;;24.83;6.65;;;8.90;99.90;;;;;;5115961;28;20052;-71
2021/12/30 05:12:53;;;;;;;33.38;7.95;;;9.00;99.90;;;;;;5097514;28;20051;-71
2021/12/30 05:15:19;;;;;;;33.10;8.70;;;9.10;99.90;;;;;;5115806;28;20059;-72
2021/12/30 05:17:45;;;;;;;30.30;8.77;;;9.00;99.90;;;;;;5115939;28;20100;-71
2021/12/30 05:20:12;;;;;;;38.20;8.85;;;9.00;99.90;;;;;;5115448;28;20105;-71
2021/12/30 05:22:39;;;;;;;30.38;8.30;;;9.00;99.90;;;;;;5115695;28;20051;-71
2021/12/30 05:25:06;;;;;;;30.15;8.93;;;9.20;99.90;;;;;;5114755;28;20526;-71
2021/12/30 05:27:31;;;;;;;34.92;9.50;;;9.20;99.90;;;;;;5097169;28;20043;-70
2021/12/30 05:29:57;;;;;;;30.90;9.27;;;9.10;99.90;;;;;;5115001;28;20168;-70
2021/12/30 05:32:23;;;;;;;30.73;8.75;;;9.30;99.90;;;;;;5115103;28;20062;-71
2021/12/30 05:34:48;;;;;;;31.40;8.93;;;9.20;99.90;;;;;;5115007;28;20136;-70
2021/12/30 05:37:14;;;;;;;30.88;9.45;;;9.20;99.90;;;;;;5115374;28;20040;-71
2021/12/30 05:39:42;;;;;;;32.45;9.40;;;9.20;99.90;;;;;;5097241;28;20044;-71
2021/12/30 05:42:08;;;;;;;34.05;9.65;;;9.30;99.90;;;;;;5115017;28;20510;-71
2021/12/30 05:44:34;;;;;;;31.38;9.30;;;9.30;99.90;;;;;;5080117;28;20079;-71
2021/12/30 05:46:59;;;;;;;40.42;9.98;;;9.70;99.90;;;;;;5097181;28;20121;-71
2021/12/30 05:49:25;;;;;;;40.15;10.63;;;9.50;99.90;;;;;;5063638;28;20051;-71
2021/12/30 05:51:51;;;;;;;34.72;10.38;;;9.40;99.90;;;;;;5096675;28;20059;-70
2021/12/30 05:54:16;;;;;;;33.92;9.98;;;9.70;99.90;;;;;;5114803;28;20126;-71
2021/12/30 05:56:43;;;;;;;28.67;8.65;;;9.50;99.90;;;;;;5115070;28;20043;-70
2021/12/30 05:59:09;;;;;;;29.33;8.43;;;9.50;99.90;;;;;;5079953;28;20104;-71
2021/12/30 06:01:35;;;;;;;31.45;9.30;;;9.70;99.90;;;;;;5114768;28;20039;-71
2021/12/30 06:04:00;;;;;;;34.75;10.23;;;9.70;99.90;;;;;;5114489;28;20483;-70
2021/12/30 06:06:26;;;;;;;29.75;9.27;;;9.70;99.90;;;;;;5096952;28;20042;-71
2021/12/30 06:08:53;;;;;;;21.55;8.00;;;9.70;99.90;;;;;;5114806;28;20464;-70
2021/12/30 06:11:19;;;;;;;24.40;8.25;;;9.60;99.90;;;;;;5114472;28;20043;-70
2021/12/30 06:13:44;;;;;;;32.33;9.30;;;9.70;99.90;;;;;;5096556;28;20055;-71
2021/12/30 06:16:10;;;;;;;26.00;8.98;;;9.70;99.90;;;;;;5096708;28;20051;-71
2021/12/30 06:18:36;;;;;;;27.40;9.07;;;9.70;99.90;;;;;;5112871;28;20501;-70
2021/12/30 06:21:02;;;;;;;24.80;9.18;;;9.80;99.90;;;;;;5079512;28;20044;-71
2021/12/30 06:23:27;;;;;;;25.65;8.55;;;9.70;99.90;;;;;;5113779;28;20133;-70
2021/12/30 06:25:53;;;;;;;24.77;9.30;;;9.80;99.90;;;;;;5114398;28;20387;-70
2021/12/30 06:28:19;;;;;;;22.38;9.15;;;9.70;99.90;;;;;;5096567;28;20123;-70
2021/12/30 06:30:45;;;;;;;19.55;8.07;;;10.00;99.90;;;;;;5095721;28;20533;-70
2021/12/30 06:33:10;;;;;;;20.92;9.00;;;10.10;99.90;;;;;;5114362;28;20078;-70
2021/12/30 06:35:36;;;;;;;32.33;13.52;;;9.90;99.90;;;;;;5114317;28;20044;-70
2021/12/30 06:38:03;;;;;;;36.45;17.42;;;9.90;99.90;;;;;;5095928;28;20047;-70
2021/12/30 06:40:29;;;;;;;70.47;36.00;;;9.90;99.90;;;;;;5095958;28;20050;-70
2021/12/30 06:42:55;;;;;;;96.60;49.70;;;9.90;99.90;;;;;;5113738;28;20555;-71
2021/12/30 06:45:21;;;;;;;88.05;45.97;;;10.10;99.90;;;;;;5113444;28;20130;-70
2021/12/30 06:47:47;;;;;;;81.75;41.63;;;10.10;99.90;;;;;;5113926;28;20131;-70
2021/12/30 06:50:15;;;;;;;74.97;40.03;;;9.90;99.90;;;;;;5113753;28;20070;-70
2021/12/30 06:52:42;;;;;;;61.03;30.83;;;10.00;99.90;;;;;;5113882;28;20502;-71
2021/12/30 06:55:09;;;;;;;42.92;19.30;;;10.10;99.90;;;;;;5113466;28;20109;-71
2021/12/30 06:57:35;;;;;;;50.17;22.15;;;10.10;99.90;;;;;;5113675;28;20506;-71
2021/12/30 07:00:04;;;;;;;50.45;24.85;;;10.10;99.90;;;;;;5095777;28;20043;-70
2021/12/30 07:02:30;;;;;;;44.55;20.50;;;10.20;99.90;;;;;;5113867;28;20055;-71
2021/12/30 07:04:56;;;;;;;46.92;19.10;;;10.10;99.90;;;;;;5114231;28;20047;-72
2021/12/30 07:07:22;;;;;;;36.60;14.73;;;10.50;99.90;;;;;;5113800;28;20044;-72
2021/12/30 07:09:47;;;;;;;38.95;14.35;;;10.20;99.90;;;;;;5113659;28;20043;-72
2021/12/30 07:12:14;;;;;;;30.55;13.82;;;10.30;99.90;;;;;;5113758;28;20589;-72
2021/12/30 07:14:40;;;;;;;32.85;12.88;;;10.40;99.90;;;;;;5095853;28;20189;-71
2021/12/30 07:17:05;;;;;;;35.08;13.38;;;10.40;99.90;;;;;;5113682;28;20123;-71
2021/12/30 07:19:31;;;;;;;32.58;13.30;;;10.50;99.90;;;;;;5078969;28;20043;-71
2021/12/30 07:21:57;;;;;;;41.22;17.20;;;10.30;99.90;;;;;;5113785;28;20126;-71
2021/12/30 07:24:23;;;;;;;41.65;17.38;;;10.30;99.90;;;;;;5112921;28;20043;-71
2021/12/30 07:26:50;;;;;;;36.60;15.27;;;10.40;99.90;;;;;;5095302;28;20394;-71
2021/12/30 07:29:16;;;;;;;39.42;17.00;;;10.40;99.90;;;;;;5113650;28;20043;-71
2021/12/30 07:31:42;;;;;;;45.03;17.13;;;10.50;99.90;;;;;;5113071;28;20495;-71
2021/12/30 07:34:08;;;;;;;35.22;15.85;;;10.50;99.90;;;;;;5095587;28;20073;-71
2021/12/30 07:36:34;;;;;;;35.33;14.07;;;10.70;99.90;;;;;;5113573;28;20052;-71
2021/12/30 07:39:00;;;;;;;34.03;13.77;;;10.50;99.90;;;;;;5113365;28;20051;-68
2021/12/30 07:41:25;;;;;;;27.30;10.70;;;10.50;99.90;;;;;;5095536;28;20444;-69
2021/12/30 07:43:52;;;;;;;28.48;10.85;;;10.50;99.90;;;;;;5113266;28;20123;-69
2021/12/30 07:46:17;;;;;;;23.90;9.68;;;10.50;99.90;;;;;;5113445;28;20502;-69
2021/12/30 07:48:43;;;;;;;23.30;9.25;;;10.60;99.90;;;;;;5095508;28;20048;-69
2021/12/30 07:51:09;;;;;;;25.52;8.43;;;10.50;99.90;;;;;;5113177;28;20060;-69
2021/12/30 07:53:35;;;;;;;20.77;7.85;;;10.60;99.90;;;;;;5112823;28;20073;-69
2021/12/30 07:56:04;;;;;;;19.75;8.65;;;10.70;99.90;;;;;;5115735;28;20055;-69
2021/12/30 07:58:30;;;;;;;22.33;8.05;;;10.70;99.90;;;;;;5117446;28;20051;-69
2021/12/30 08:00:55;;;;;;;19.42;7.88;;;10.60;99.90;;;;;;5117374;28;20104;-69
2021/12/30 08:03:21;;;;;;;23.35;7.90;;;10.60;99.90;;;;;;5117518;28;20476;-69
2021/12/30 08:05:49;;;;;;;16.33;6.63;;;10.60;99.90;;;;;;5117051;28;20445;-69
2021/12/30 08:08:15;;;;;;;16.17;6.32;;;10.70;99.90;;;;;;5099044;28;20056;-69
2021/12/30 08:10:40;;;;;;;17.92;6.72;;;10.70;99.90;;;;;;5117163;28;20040;-68
2021/12/30 08:13:06;;;;;;;19.40;6.97;;;10.90;99.90;;;;;;5116934;28;20058;-69
2021/12/30 08:15:32;;;;;;;16.08;6.05;;;10.90;99.90;;;;;;5099069;28;20066;-69
2021/12/30 08:17:58;;;;;;;16.00;6.00;;;10.80;99.90;;;;;;5116202;28;20100;-69
2021/12/30 08:20:24;;;;;;;14.40;5.90;;;10.80;99.90;;;;;;5116136;28;20044;-69
2021/12/30 08:22:51;;;;;;;16.70;5.90;;;11.00;99.90;;;;;;5098734;28;20053;-69
2021/12/30 08:25:18;;;;;;;17.92;5.13;;;10.90;99.90;;;;;;5116413;28;20050;-68
2021/12/30 08:27:44;;;;;;;11.27;4.38;;;10.90;99.90;;;;;;5116393;28;20047;-68
2021/12/30 08:30:14;;;;;;;13.77;4.35;;;11.00;99.90;;;;;;5117559;27;20157;-68
2021/12/30 08:32:40;;;;;;;17.02;4.38;;;10.90;99.90;;;;;;5137388;27;20039;-68
2021/12/30 08:35:07;;;;;;;9.23;3.10;;;10.90;99.90;;;;;;5119307;27;20536;-69
2021/12/30 08:37:34;;;;;;;6.38;2.50;;;10.80;99.90;;;;;;5118962;27;20054;-69
2021/12/30 08:40:02;;;;;;;4.75;1.60;;;10.90;99.90;;;;;;5136990;27;20096;-68
2021/12/30 08:42:29;;;;;;;6.22;1.70;;;10.90;99.90;;;;;;5137277;27;20047;-69
2021/12/30 08:44:57;;;;;;;3.20;1.35;;;11.10;99.90;;;;;;5118857;27;20050;-69
2021/12/30 08:47:24;;;;;;;2.80;1.13;;;11.00;99.90;;;;;;5136853;27;20039;-68
2021/12/30 08:49:50;;;;;;;3.58;1.05;;;11.00;99.90;;;;;;5136676;27;20058;-68
2021/12/30 08:52:21;;;;;;;2.83;1.00;;;11.00;99.90;;;;;;5136077;27;20055;-69
2021/12/30 08:54:47;;;;;;;3.20;1.08;;;11.00;99.90;;;;;;5118513;27;20131;-69
2021/12/30 08:57:14;;;;;;;4.78;1.10;;;11.00;99.90;;;;;;5136949;27;20039;-72
2021/12/30 08:59:40;;;;;;;3.75;1.00;;;11.20;99.90;;;;;;5136938;27;20072;-70
2021/12/30 09:02:07;;;;;;;2.55;1.00;;;11.10;99.90;;;;;;5135815;27;20039;-70
2021/12/30 09:04:34;;;;;;;3.47;1.02;;;11.10;99.90;;;;;;5136463;27;20118;-73
2021/12/30 09:07:00;;;;;;;3.00;1.00;;;11.10;99.90;;;;;;5135947;27;20096;-70
2021/12/30 09:09:27;;;;;;;2.42;1.00;;;11.10;99.90;;;;;;5118649;27;20388;-69
2021/12/30 09:11:54;;;;;;;2.55;0.70;;;11.10;99.90;;;;;;5136471;27;20116;-70
2021/12/30 09:14:20;;;;;;;1.65;0.50;;;11.00;99.90;;;;;;5118619;27;20082;-69
2021/12/30 09:16:48;;;;;;;1.40;0.68;;;11.10;99.90;;;;;;5136273;27;20043;-69
2021/12/30 09:19:15;;;;;;;0.73;0.60;;;11.20;99.90;;;;;;5135986;27;20039;-69
2021/12/30 09:21:42;;;;;;;1.55;0.60;;;11.20;99.90;;;;;;5136038;27;20117;-69
2021/12/30 09:24:10;;;;;;;1.30;0.82;;;11.20;99.90;;;;;;5132319;27;20043;-69
2021/12/30 09:26:36;;;;;;;2.03;1.02;;;11.20;99.90;;;;;;5135441;27;20039;-69
2021/12/30 09:29:10;;;;;;;4.60;2.00;;;11.30;99.90;;;;;;5135831;27;20043;-69
2021/12/30 09:31:39;;;;;;;5.60;2.17;;;11.40;99.90;;;;;;5117099;27;20078;-68
2021/12/30 09:34:05;;;;;;;4.38;2.05;;;11.30;99.90;;;;;;5132402;27;20509;-68
2021/12/30 09:36:31;;;;;;;5.53;2.67;;;11.30;99.90;;;;;;5135780;27;20035;-68
2021/12/30 09:38:57;;;;;;;10.63;3.80;;;11.40;99.90;;;;;;5135731;27;20122;-69
2021/12/30 09:41:23;;;;;;;8.02;4.00;;;11.50;99.90;;;;;;5135551;27;20043;-69
2021/12/30 09:43:48;;;;;;;9.73;4.93;;;11.40;99.90;;;;;;5117370;27;20247;-69
2021/12/30 09:46:15;;;;;;;8.85;4.35;;;11.40;99.90;;;;;;5135468;27;20068;-69
2021/12/30 09:48:40;;;;;;;10.02;4.47;;;11.60;99.90;;;;;;5135474;27;20049;-69
2021/12/30 09:51:08;;;;;;;7.63;3.53;;;11.50;99.90;;;;;;5082062;28;20131;-68
2021/12/30 09:53:34;;;;;;;6.43;2.72;;;11.60;99.90;;;;;;5093935;28;20048;-71
2021/12/30 09:56:00;;;;;;;7.93;2.53;;;11.60;99.90;;;;;;5094354;28;20046;-69
2021/12/30 09:58:29;;;;;;;4.05;2.45;;;11.90;99.90;;;;;;5093238;28;20421;-71
2021/12/30 10:00:55;;;;;;;7.53;2.63;;;11.60;99.90;;;;;;5094215;28;20496;-71
2021/12/30 10:03:22;;;;;;;6.40;2.65;;;11.80;99.90;;;;;;5093260;28;20040;-71
2021/12/30 10:05:48;;;;;;;5.18;2.03;;;11.60;99.90;;;;;;5094125;28;20075;-71
2021/12/30 10:08:22;;;;;;;5.00;2.28;;;11.70;99.90;;;;;;5094252;28;20101;-72
2021/12/30 10:10:56;;;;;;;4.75;2.13;;;11.70;99.90;;;;;;5055283;28;20052;-69
2021/12/30 10:13:30;;;;;;;8.38;2.83;;;11.80;99.90;;;;;;5051439;28;20044;-69
2021/12/30 10:15:57;;;;;;;7.75;3.00;;;11.70;99.90;;;;;;5059824;28;20110;-71
2021/12/30 10:18:24;;;;;;;6.13;3.13;;;12.00;99.90;;;;;;5058349;28;20051;-65
2021/12/30 10:20:51;;;;;;;8.50;3.70;;;11.70;99.90;;;;;;5044433;28;20052;-68
2021/12/30 10:23:21;;;;;;;8.30;3.78;;;11.90;99.90;;;;;;5060621;28;20109;-65
2021/12/30 10:25:56;;;;;;;10.55;3.67;;;11.70;99.90;;;;;;5049108;28;20052;-65
2021/12/30 10:28:36;;;;;;;8.93;4.40;;;11.80;99.90;;;;;;5044760;28;20171;-66
2021/12/30 10:31:10;;;;;;;8.23;3.78;;;11.80;99.90;;;;;;5059375;28;20048;-71
2021/12/30 10:33:37;;;;;;;8.75;4.57;;;11.80;99.90;;;;;;5053824;28;20139;-70
2021/12/30 10:36:17;;;;;;;15.85;4.35;;;11.80;99.90;;;;;;5055758;28;20135;-68
2021/12/30 10:38:43;;;;;;;10.45;5.03;;;11.80;99.90;;;;;;5056693;28;20154;-69
2021/12/30 10:41:08;;;;;;;8.52;4.30;;;11.70;99.90;;;;;;5054254;28;20439;-70
2021/12/30 10:43:46;;;;;;;12.30;4.80;;;11.30;99.90;;;;;;5056433;28;20053;-69
2021/12/30 10:46:21;;;;;;;9.77;4.25;;;11.70;99.90;;;;;;5049932;28;20512;-70
2021/12/30 10:49:04;;;;;;;10.00;4.00;;;11.70;99.90;;;;;;5049649;28;21046;-69
2021/12/30 10:51:34;;;;;;;15.70;5.50;;;11.80;99.90;;;;;;5060436;28;20052;-69
2021/12/30 10:54:10;;;;;;;9.45;3.25;;;11.70;99.90;;;;;;5072363;28;20055;-69
2021/12/30 10:56:38;;;;;;;11.77;4.25;;;11.70;99.90;;;;;;5060571;28;20204;-69
2021/12/30 10:59:16;;;;;;;12.38;3.97;;;11.60;99.90;;;;;;5078459;28;20127;-71
2021/12/30 11:01:45;;;;;;;10.15;4.35;;;11.80;99.90;;;;;;5069915;28;20080;-70
2021/12/30 11:04:11;;;;;;;9.65;4.43;;;11.70;99.90;;;;;;5069782;28;20088;-71
2021/12/30 11:06:37;;;;;;;11.73;4.32;;;11.70;99.90;;;;;;5066933;28;20042;-70
2021/12/30 11:09:10;;;;;;;16.15;4.60;;;11.70;99.90;;;;;;5072805;28;20047;-70
2021/12/30 11:11:40;;;;;;;14.82;4.47;;;11.70;99.90;;;;;;5076812;28;20044;-70
2021/12/30 11:14:18;;;;;;;13.20;4.85;;;11.60;99.90;;;;;;5073885;28;21425;-71
2021/12/30 11:17:05;;;;;;;14.68;5.18;;;11.70;99.90;;;;;;5070883;28;20048;-72
2021/12/30 11:19:35;;;;;;;16.90;5.68;;;11.80;99.90;;;;;;5073964;28;20151;-73
2021/12/30 11:22:04;;;;;;;13.35;5.55;;;11.70;99.90;;;;;;5071094;28;20247;-71
2021/12/30 11:24:31;;;;;;;15.52;5.82;;;11.70;99.90;;;;;;5106262;28;20515;-73
2021/12/30 11:26:57;;;;;;;16.90;6.38;;;11.60;99.90;;;;;;5113298;28;20062;-72
2021/12/30 11:29:23;;;;;;;17.13;5.78;;;11.70;99.90;;;;;;5113413;28;20114;-72
2021/12/30 11:31:51;;;;;;;18.80;6.22;;;11.70;99.90;;;;;;5116051;28;20578;-71
2021/12/30 11:34:20;;;;;;;22.42;6.80;;;11.80;99.90;;;;;;5117679;28;20071;-73
2021/12/30 11:36:46;;;;;;;24.40;6.15;;;11.60;99.90;;;;;;5115134;28;20065;-73
2021/12/30 11:39:19;;;;;;;20.52;6.45;;;11.60;99.90;;;;;;5117480;28;20039;-72
2021/12/30 11:41:52;;;;;;;18.55;4.93;;;11.70;99.90;;;;;;5113653;28;20043;-73
2021/12/30 11:44:39;;;;;;;24.02;6.03;;;11.60;99.90;;;;;;5116299;28;20035;-72
2021/12/30 11:47:08;;;;;;;22.17;6.65;;;11.70;99.90;;;;;;5117496;28;20558;-70
2021/12/30 11:50:02;;;;;;;21.45;7.38;;;11.70;99.90;;;;;;5117123;28;20043;-70
2021/12/30 11:52:47;;;;;;;27.77;6.63;;;11.70;99.90;;;;;;5133050;27;20479;-71
2021/12/30 11:55:46;;;;;;;24.20;5.30;;;11.60;99.90;;;;;;5136403;27;20141;-72
2021/12/30 12:00:59;;;;;;;22.58;6.47;;;11.60;99.90;;;;;;5137227;27;20043;-71
2021/12/30 12:03:43;;;;;;;26.08;6.10;;;11.60;99.90;;;;;;5137524;27;20051;-71
2021/12/30 12:06:24;;;;;;;25.95;6.25;;;11.70;99.90;;;;;;5119725;27;20047;-72
2021/12/30 12:08:52;;;;;;;28.42;6.03;;;11.70;99.90;;;;;;5119527;27;20201;-73
2021/12/30 12:11:20;;;;;;;21.63;5.85;;;11.60;99.90;;;;;;5137882;27;20488;-74
2021/12/30 12:13:48;;;;;;;25.75;6.28;;;11.60;99.90;;;;;;5119327;27;20051;-72
2021/12/30 12:16:17;;;;;;;30.80;6.68;;;11.60;99.90;;;;;;5118934;27;20054;-73
2021/12/30 12:19:05;;;;;;;21.70;6.22;;;11.60;99.90;;;;;;5137177;27;20039;-74
2021/12/30 12:21:49;;;;;;;31.98;6.57;;;11.60;99.90;;;;;;5137402;27;20047;-74
2021/12/30 12:24:20;;;;;;;23.73;5.82;;;11.70;99.90;;;;;;5137856;27;20047;-73
2021/12/30 12:26:57;;;;;;;22.35;5.93;;;11.90;99.90;;;;;;5119578;27;20369;-73
2021/12/30 12:29:26;;;;;;;23.17;5.75;;;11.70;99.90;;;;;;5137279;27;20043;-78
2021/12/30 12:31:58;;;;;;;26.90;7.85;;;11.60;99.90;;;;;;5137323;27;20047;-74
2021/12/30 12:34:58;;;;;;;25.27;5.88;;;11.70;99.90;;;;;;5137951;27;20045;-74
2021/12/30 12:37:30;;;;;;;22.10;5.40;;;11.90;99.90;;;;;;5082553;27;20130;-74
2021/12/30 12:40:04;;;;;;;26.08;5.88;;;11.80;99.90;;;;;;5119166;27;20104;-73
2021/12/30 12:42:42;;;;;;;22.45;5.43;;;11.80;99.90;;;;;;5117727;27;20096;-73
2021/12/30 12:45:33;;;;;;;27.52;5.82;;;11.90;99.90;;;;;;5137157;27;20058;-74
2021/12/30 12:48:23;;;;;;;25.05;5.90;;;11.90;99.90;;;;;;5137528;27;20246;-73
2021/12/30 12:51:07;;;;;;;23.73;6.35;;;11.80;99.90;;;;;;5137121;27;20082;-73
2021/12/30 12:53:33;;;;;;;22.30;6.22;;;12.00;99.90;;;;;;5136253;27;20115;-72